Time;durP1;ratioP1;P1;durP2;ratioP2;P2;SDS_P1;SDS_P2;PMS_P1;PMS_P2;Temp;Humidity;BMP_temperature;BMP_pressure;BME280_temperature;BME280_humidity;BME280_pressure;Samples;Min_cycle;Max_cycle;Signal;HPM_P1;HPM_P2
2021/03/25 00:01:38;;;;;;;7.10;3.90;;;;;;;-140.79;100.00;63287.88;4989599;28;20038;-74
2021/03/25 00:04:03;;;;;;;6.10;3.65;;;;;;;-140.79;100.00;63287.88;4989595;28;20131;-74
2021/03/25 00:06:29;;;;;;;6.72;3.90;;;;;;;-140.79;100.00;63287.88;4961417;28;20504;-73
2021/03/25 00:08:55;;;;;;;6.28;3.80;;;;;;;-140.79;100.00;63287.88;4949242;29;20416;-74
2021/03/25 00:11:21;;;;;;;6.60;3.88;;;;;;;-140.79;100.00;63287.88;4933681;28;20031;-73
2021/03/25 00:13:46;;;;;;;7.32;4.03;;;;;;;-140.79;100.00;63287.88;4977176;28;20073;-73
2021/03/25 00:16:12;;;;;;;7.72;4.35;;;;;;;-140.79;100.00;63287.88;4989714;28;20104;-74
2021/03/25 00:18:38;;;;;;;6.82;3.95;;;;;;;-140.79;100.00;63287.88;4965814;28;20559;-74
2021/03/25 00:21:06;;;;;;;7.72;4.00;;;;;;;-140.79;100.00;63287.88;4953053;28;20045;-74
2021/03/25 00:23:32;;;;;;;5.43;3.58;;;;;;;-140.79;100.00;63287.88;4969016;28;20185;-74
2021/03/25 00:25:58;;;;;;;6.32;4.22;;;;;;;-140.79;100.00;63287.88;4953057;28;20544;-74
2021/03/25 00:28:23;;;;;;;7.13;3.70;;;;;;;-140.79;100.00;63287.88;4969786;28;20023;-74
2021/03/25 00:30:49;;;;;;;6.53;3.97;;;;;;;-140.79;100.00;63287.88;4936440;28;20030;-74
2021/03/25 00:33:15;;;;;;;7.80;3.97;;;;;;;-140.79;100.00;63287.88;4953313;28;20026;-73
2021/03/25 00:35:41;;;;;;;6.90;4.30;;;;;;;-140.79;100.00;63287.88;4971618;28;20031;-73
2021/03/25 00:38:07;;;;;;;7.53;4.50;;;;;;;-140.79;100.00;63287.88;4972408;28;20404;-73
2021/03/25 00:40:32;;;;;;;7.38;4.50;;;;;;;-140.79;100.00;63287.88;4970985;28;20030;-73
2021/03/25 00:42:59;;;;;;;7.30;4.25;;;;;;;-140.79;100.00;63287.88;4952561;28;20030;-72
2021/03/25 00:45:29;;;;;;;6.93;4.20;;;;;;;-140.79;100.00;63287.88;4952457;28;20419;-72
2021/03/25 00:47:54;;;;;;;7.13;4.18;;;;;;;-140.79;100.00;63287.88;4970494;28;20034;-73
2021/03/25 00:50:26;;;;;;;8.50;4.10;;;;;;;-140.79;100.00;63287.88;4952203;28;20027;-73
2021/03/25 00:52:51;;;;;;;6.72;3.80;;;;;;;-140.79;100.00;63287.88;4969338;28;20034;-73
2021/03/25 00:55:17;;;;;;;7.80;4.43;;;;;;;-140.79;100.00;63287.88;4969528;28;20034;-73
2021/03/25 00:57:42;;;;;;;7.63;4.25;;;;;;;-140.79;100.00;63287.88;4952236;28;20043;-75
2021/03/25 01:00:08;;;;;;;6.25;3.85;;;;;;;-140.79;100.00;63287.88;4969609;28;20034;-72
2021/03/25 01:02:34;;;;;;;7.68;4.10;;;;;;;-140.79;100.00;63287.88;4952299;28;20042;-73
2021/03/25 01:04:59;;;;;;;6.13;3.90;;;;;;;-140.79;100.00;63287.88;4969451;28;20043;-73
2021/03/25 01:10:49;;;;;;;6.63;4.03;;;;;;;-140.79;100.00;63287.88;4986029;28;20498;-73
2021/03/25 01:13:28;;;;;;;8.05;4.25;;;;;;;-140.79;100.00;63287.88;4959551;28;20031;-73
2021/03/25 01:15:54;;;;;;;7.97;5.32;;;;;;;-140.79;100.00;63287.88;4951759;28;20761;-72
2021/03/25 01:18:19;;;;;;;7.78;4.43;;;;;;;-140.79;100.00;63287.88;4936203;28;20130;-74
2021/03/25 01:20:45;;;;;;;6.82;3.92;;;;;;;-140.79;100.00;63287.88;4969135;28;20023;-73
2021/03/25 01:23:10;;;;;;;8.90;4.68;;;;;;;-140.79;100.00;63287.88;4951938;28;20405;-72
2021/03/25 01:25:36;;;;;;;6.85;4.30;;;;;;;-140.79;100.00;63287.88;4969371;28;20096;-73
2021/03/25 01:28:03;;;;;;;7.55;4.47;;;;;;;-140.79;100.00;63287.88;4969234;28;20074;-74
2021/03/25 01:30:29;;;;;;;7.05;3.97;;;;;;;-140.79;100.00;63287.88;4950617;28;20031;-72
2021/03/25 01:32:55;;;;;;;7.78;4.10;;;;;;;-140.79;100.00;63287.88;4959532;28;20033;-72
2021/03/25 01:35:20;;;;;;;6.20;4.03;;;;;;;-140.79;100.00;63287.88;4951855;28;20026;-73
2021/03/25 01:37:47;;;;;;;7.25;4.35;;;;;;;-140.79;100.00;63287.88;4969033;28;20497;-72
2021/03/25 01:40:17;;;;;;;24.35;11.13;;;;;;;-140.79;100.00;63287.88;4938779;28;20038;-74
2021/03/25 01:42:42;;;;;;;;;;;;;;;-140.79;100.00;63287.88;4972846;28;20045;-74
2021/03/25 01:45:29;;;;;;;15.13;7.80;;;;;;;-140.79;100.00;63287.88;4972470;28;19910;-74
2021/03/25 01:47:59;;;;;;;6.43;4.00;;;;;;;-140.79;100.00;63287.88;4972447;28;20022;-74
2021/03/25 01:50:24;;;;;;;7.82;4.13;;;;;;;-140.79;100.00;63287.88;4972178;28;20471;-74
2021/03/25 01:53:14;;;;;;;7.57;4.20;;;;;;;-140.79;100.00;63287.88;4972494;28;20062;-73
2021/03/25 01:55:48;;;;;;;9.10;4.25;;;;;;;-140.79;100.00;63287.88;4972464;28;20081;-75
2021/03/25 01:58:20;;;;;;;7.47;4.10;;;;;;;-140.79;100.00;63287.88;4956663;28;20074;-72
2021/03/25 02:00:49;;;;;;;7.95;3.97;;;;;;;-140.79;100.00;63287.88;4991652;28;20037;-73
2021/03/25 02:03:14;;;;;;;8.30;3.80;;;;;;;-140.79;100.00;63287.88;4974074;28;20033;-73
2021/03/25 02:05:44;;;;;;;6.93;4.40;;;;;;;-140.79;100.00;63287.88;4991303;28;20273;-75
2021/03/25 02:08:23;;;;;;;7.38;4.45;;;;;;;-140.79;100.00;63287.88;4990340;28;20397;-75
2021/03/25 02:11:11;;;;;;;7.00;4.25;;;;;;;-140.79;100.00;63287.88;4990276;28;20065;-75
2021/03/25 02:14:02;;;;;;;6.95;4.30;;;;;;;-140.79;100.00;63287.88;4990180;28;20030;-73
2021/03/25 02:16:33;;;;;;;7.78;4.10;;;;;;;-140.79;100.00;63287.88;4991563;28;20408;-72
2021/03/25 02:19:45;;;;;;;7.20;4.45;;;;;;;-140.79;100.00;63287.88;4991139;28;20057;-75
2021/03/25 02:22:32;;;;;;;7.65;4.45;;;;;;;-140.79;100.00;63287.88;4987500;28;20060;-73
2021/03/25 02:25:00;;;;;;;8.05;4.25;;;;;;;-140.79;100.00;63287.88;4990744;28;20030;-73
2021/03/25 02:27:44;;;;;;;6.13;4.25;;;;;;;-140.79;100.00;63287.88;4989633;28;20121;-73
2021/03/25 02:30:13;;;;;;;8.85;4.47;;;;;;;-140.79;100.00;63287.88;4991148;28;20526;-75
2021/03/25 02:32:44;;;;;;;8.30;5.90;;;;;;;-140.79;100.00;63287.88;4991124;28;20022;-74
2021/03/25 02:35:39;;;;;;;6.78;3.88;;;;;;;-140.79;100.00;63287.88;4991171;28;20034;-72
2021/03/25 02:38:11;;;;;;;7.55;4.25;;;;;;;-140.79;100.00;63287.88;4973939;28;20027;-72
2021/03/25 02:40:51;;;;;;;7.68;4.10;;;;;;;-140.79;100.00;63287.88;4989103;28;20042;-74
2021/03/25 02:43:26;;;;;;;7.00;4.00;;;;;;;-140.79;100.00;63287.88;4989509;28;20221;-73
2021/03/25 02:45:58;;;;;;;6.93;4.22;;;;;;;-140.79;100.00;63287.88;4988568;28;20030;-72
2021/03/25 02:48:23;;;;;;;6.45;3.83;;;;;;;-140.79;100.00;63287.88;4989069;28;20037;-74
2021/03/25 02:50:59;;;;;;;6.55;3.88;;;;;;;-140.79;100.00;63287.88;4989890;28;20499;-72
2021/03/25 02:53:32;;;;;;;7.05;3.92;;;;;;;-140.79;100.00;63287.88;4988298;28;20570;-74
2021/03/25 02:56:00;;;;;;;6.93;4.20;;;;;;;-140.79;100.00;63287.88;4989372;28;20081;-74
2021/03/25 02:58:25;;;;;;;7.05;3.92;;;;;;;-140.79;100.00;63287.88;4980517;28;20030;-73
2021/03/25 03:01:14;;;;;;;6.72;3.95;;;;;;;-140.79;100.00;63287.88;4954180;28;20071;-73
2021/03/25 03:03:46;;;;;;;7.50;4.15;;;;;;;-140.79;100.00;63287.88;4945987;28;20104;-74
2021/03/25 03:06:15;;;;;;;7.72;4.15;;;;;;;-140.79;100.00;63287.88;4953797;28;20065;-72
2021/03/25 03:08:42;;;;;;;7.20;3.97;;;;;;;-140.79;100.00;63287.88;4985661;28;20088;-72
2021/03/25 03:11:14;;;;;;;7.07;3.97;;;;;;;-140.79;100.00;63287.88;4989097;28;20026;-73
2021/03/25 03:13:42;;;;;;;7.03;3.78;;;;;;;-140.79;100.00;63287.88;4988441;28;20510;-74
2021/03/25 03:16:15;;;;;;;6.15;3.95;;;;;;;-140.79;100.00;63287.88;4988994;28;20019;-73
2021/03/25 03:18:46;;;;;;;7.15;3.92;;;;;;;-140.79;100.00;63287.88;4972834;28;20030;-73
2021/03/25 03:21:12;;;;;;;;;;;;;;;-140.79;100.00;63287.88;4989522;28;20121;-73
2021/03/25 03:23:37;;;;;;;7.80;4.60;;;;;;;-140.79;100.00;63287.88;4988559;28;19913;-75
2021/03/25 03:26:09;;;;;;;7.05;4.10;;;;;;;-140.79;100.00;63287.88;4990188;28;20048;-74
2021/03/25 03:28:47;;;;;;;6.43;3.90;;;;;;;-140.79;100.00;63287.88;4974676;28;20496;-74
2021/03/25 03:31:19;;;;;;;6.53;3.90;;;;;;;-140.79;100.00;63287.88;4948424;28;20023;-74
2021/03/25 03:33:49;;;;;;;7.25;3.92;;;;;;;-140.79;100.00;63287.88;4947958;29;20030;-74
2021/03/25 03:36:21;;;;;;;128.77;78.55;;;;;;;-140.79;100.00;63287.88;4949880;29;20027;-75
2021/03/25 03:38:52;;;;;;;7.32;3.92;;;;;;;-140.79;100.00;63287.88;4950259;29;20034;-74
2021/03/25 03:41:22;;;;;;;6.70;3.97;;;;;;;-140.79;100.00;63287.88;4949884;29;20118;-74
2021/03/25 03:43:47;;;;;;;9.60;5.75;;;;;;;-140.79;100.00;63287.88;4966066;28;20041;-73
2021/03/25 03:46:19;;;;;;;23.80;10.52;;;;;;;-140.79;100.00;63287.88;4988232;28;20046;-73
2021/03/25 03:48:56;;;;;;;6.45;3.92;;;;;;;-140.79;100.00;63287.88;4987774;28;20431;-74
2021/03/25 03:51:27;;;;;;;6.35;3.70;;;;;;;-140.79;100.00;63287.88;4988694;28;20033;-74
2021/03/25 03:53:58;;;;;;;7.75;4.57;;;;;;;-140.79;100.00;63287.88;4972213;28;20081;-72
2021/03/25 03:56:28;;;;;;;6.45;3.92;;;;;;;-140.79;100.00;63287.88;4987637;28;20511;-73
2021/03/25 03:58:55;;;;;;;5.78;3.60;;;;;;;-140.79;100.00;63287.88;4987824;28;20022;-73
2021/03/25 04:01:32;;;;;;;6.68;3.95;;;;;;;-140.79;100.00;63287.88;4971796;28;20034;-74
2021/03/25 04:04:05;;;;;;;7.88;4.25;;;;;;;-140.79;100.00;63287.88;4986724;28;20054;-74
2021/03/25 04:06:33;;;;;;;6.68;3.58;;;;;;;-140.79;100.00;63287.88;4956176;28;20061;-73
2021/03/25 04:09:03;;;;;;;6.43;3.83;;;;;;;-140.79;100.00;63287.88;4950669;29;20099;-73
2021/03/25 04:11:47;;;;;;;6.05;3.55;;;;;;;-140.79;100.00;63287.88;4933833;29;20464;-73
2021/03/25 04:14:20;;;;;;;6.63;4.05;;;;;;;-140.79;100.00;63287.88;4949661;29;20081;-73
2021/03/25 04:16:46;;;;;;;6.45;3.85;;;;;;;-140.79;100.00;63287.88;4942811;28;20397;-74
2021/03/25 04:19:20;;;;;;;7.72;4.43;;;;;;;-140.79;100.00;63287.88;4945536;29;20035;-73
2021/03/25 04:21:45;;;;;;;6.13;3.70;;;;;;;-140.79;100.00;63287.88;4949206;29;20027;-72
2021/03/25 04:24:16;;;;;;;5.68;3.90;;;;;;;-140.79;100.00;63287.88;4950553;29;20031;-73
2021/03/25 04:26:46;;;;;;;;;;;;;;;-140.79;100.00;63287.88;4963727;28;20030;-74
2021/03/25 04:29:32;;;;;;;6.90;4.13;;;;;;;-140.79;100.00;63287.88;4963222;28;19917;-74
2021/03/25 04:31:57;;;;;;;6.32;3.40;;;;;;;-140.79;100.00;63287.88;4948257;28;20126;-74
2021/03/25 04:34:23;;;;;;;6.43;3.70;;;;;;;-140.79;100.00;63287.88;4952533;28;20422;-73
2021/03/25 04:36:49;;;;;;;6.13;4.07;;;;;;;-140.79;100.00;63287.88;4959611;28;20046;-75
2021/03/25 04:39:15;;;;;;;7.13;3.80;;;;;;;-140.79;100.00;63287.88;4951519;28;20031;-71
2021/03/25 04:41:42;;;;;;;7.13;3.92;;;;;;;-140.79;100.00;63287.88;4969213;28;20053;-71
2021/03/25 04:44:16;;;;;;;7.65;4.38;;;;;;;-140.79;100.00;63287.88;4958039;28;20101;-74
2021/03/25 04:46:49;;;;;;;5.65;3.38;;;;;;;-140.79;100.00;63287.88;4964794;28;20056;-71
2021/03/25 04:49:43;;;;;;;5.82;4.15;;;;;;;-140.79;100.00;63287.88;4966570;28;20056;-72
2021/03/25 04:52:23;;;;;;;6.63;3.90;;;;;;;-140.79;100.00;63287.88;4965164;28;20378;-72
2021/03/25 04:54:48;;;;;;;6.05;4.10;;;;;;;-140.79;100.00;63287.88;4981606;28;20114;-72
2021/03/25 04:57:34;;;;;;;6.47;3.80;;;;;;;-140.79;100.00;63287.88;4956142;28;20034;-73
2021/03/25 05:00:03;;;;;;;7.75;4.07;;;;;;;-140.79;100.00;63287.88;4963208;28;20444;-71
2021/03/25 05:02:28;;;;;;;6.32;3.80;;;;;;;-140.79;100.00;63287.88;4959893;28;20034;-71
2021/03/25 05:04:55;;;;;;;5.85;4.00;;;;;;;-140.79;100.00;63287.88;4977942;28;20055;-74
2021/03/25 05:07:24;;;;;;;6.13;3.65;;;;;;;-140.79;100.00;63287.88;4954724;28;20027;-73
2021/03/25 05:09:50;;;;;;;5.15;3.25;;;;;;;-140.79;100.00;63287.88;4951557;28;20030;-73
2021/03/25 05:12:16;;;;;;;5.38;3.28;;;;;;;-140.79;100.00;63287.88;4938488;28;20141;-72
2021/03/25 05:14:41;;;;;;;5.30;3.42;;;;;;;-140.79;100.00;63287.88;4953830;28;20031;-75
2021/03/25 05:17:35;;;;;;;6.88;4.00;;;;;;;-140.79;100.00;63287.88;4955389;28;20109;-75
2021/03/25 05:20:30;;;;;;;6.88;4.10;;;;;;;-140.79;100.00;63287.88;4971029;28;20058;-74
2021/03/25 05:23:06;;;;;;;6.43;3.85;;;;;;;-140.79;100.00;63287.88;4970560;28;20069;-80
2021/03/25 05:25:34;;;;;;;5.22;3.15;;;;;;;-140.79;100.00;63287.88;4971001;28;20033;-76
2021/03/25 05:28:05;;;;;;;7.07;3.40;;;;;;;-140.79;100.00;63287.88;4972640;28;20042;-77
2021/03/25 05:30:32;;;;;;;7.53;3.95;;;;;;;-140.79;100.00;63287.88;4964069;28;20038;-76
2021/03/25 05:33:02;;;;;;;6.57;4.00;;;;;;;-140.79;100.00;63287.88;4946039;28;20542;-74
2021/03/25 05:35:32;;;;;;;5.90;3.67;;;;;;;-140.79;100.00;63287.88;4959044;28;20146;-74
2021/03/25 05:37:57;;;;;;;7.72;3.90;;;;;;;-140.79;100.00;63287.88;4934692;28;20026;-78
2021/03/25 05:40:26;;;;;;;5.53;3.47;;;;;;;-140.79;100.00;63287.88;4941101;29;20063;-72
2021/03/25 05:43:10;;;;;;;5.57;3.65;;;;;;;-140.79;100.00;63287.88;4961878;28;20119;-72
2021/03/25 05:45:44;;;;;;;6.70;3.72;;;;;;;-140.79;100.00;63287.88;4956557;28;20122;-71
2021/03/25 05:48:34;;;;;;;7.22;3.58;;;;;;;-140.79;100.00;63287.88;4934854;28;20519;-72
2021/03/25 05:51:02;;;;;;;;;;;;;;;-140.79;100.00;63287.88;4954743;28;20027;-73
2021/03/25 05:53:35;;;;;;;7.00;3.55;;;;;;;-140.79;100.00;63287.88;4963948;28;20414;-72
2021/03/25 05:56:33;;;;;;;7.15;3.75;;;;;;;-140.79;100.00;63287.88;4952115;28;20034;-75
2021/03/25 05:59:00;;;;;;;5.68;3.28;;;;;;;-140.79;100.00;63287.88;4954952;28;20137;-71
2021/03/25 06:01:41;;;;;;;6.18;3.83;;;;;;;-140.79;100.00;63287.88;4951213;28;20023;-72
2021/03/25 06:04:12;;;;;;;10.80;5.80;;;;;;;-140.79;100.00;63287.88;4955286;28;20121;-73
2021/03/25 06:06:56;;;;;;;11.43;6.68;;;;;;;-140.79;100.00;63287.88;4949983;28;20027;-74
2021/03/25 06:09:34;;;;;;;12.18;6.85;;;;;;;-140.79;100.00;63287.88;4939410;28;20042;-74
2021/03/25 06:12:32;;;;;;;9.95;6.05;;;;;;;-140.79;100.00;63287.88;4934822;28;20047;-74
2021/03/25 06:15:18;;;;;;;11.55;6.70;;;;;;;-140.79;100.00;63287.88;4952005;28;20043;-73
2021/03/25 06:17:56;;;;;;;9.63;5.90;;;;;;;-140.79;100.00;63287.88;4948691;28;20517;-72
2021/03/25 06:20:30;;;;;;;11.32;5.90;;;;;;;-140.79;100.00;63287.88;4949853;28;20031;-75
2021/03/25 06:23:18;;;;;;;11.27;6.97;;;;;;;-140.79;100.00;63287.88;4967245;28;20551;-72
2021/03/25 06:26:19;;;;;;;9.65;5.60;;;;;;;-140.79;100.00;63287.88;4958224;28;20034;-72
2021/03/25 06:28:46;;;;;;;8.13;4.75;;;;;;;-140.79;100.00;63287.88;4947321;28;20113;-72
2021/03/25 06:31:14;;;;;;;9.15;5.18;;;;;;;-140.79;100.00;63287.88;4939238;28;20027;-77
2021/03/25 06:33:52;;;;;;;20.30;5.97;;;;;;;-140.79;100.00;63287.88;4949850;28;20029;-77
2021/03/25 06:36:18;;;;;;;8.32;4.90;;;;;;;-140.79;100.00;63287.88;4963391;28;20427;-75
2021/03/25 06:38:50;;;;;;;6.90;4.38;;;;;;;-140.79;100.00;63287.88;4967737;28;20117;-78
2021/03/25 06:41:23;;;;;;;9.50;4.22;;;;;;;-140.79;100.00;63287.88;4962169;28;20053;-75
2021/03/25 06:43:51;;;;;;;8.02;4.30;;;;;;;-140.79;100.00;63287.88;4965303;28;20030;-73
2021/03/25 06:46:19;;;;;;;5.88;3.83;;;;;;;-140.79;100.00;63287.88;4960200;28;20126;-71
2021/03/25 06:48:52;;;;;;;7.82;4.40;;;;;;;-140.79;100.00;63287.88;4968390;28;20070;-73
2021/03/25 06:51:32;;;;;;;5.78;4.32;;;;;;;-140.79;100.00;63287.88;4955735;28;20061;-73
2021/03/25 06:54:13;;;;;;;6.72;3.80;;;;;;;-140.79;100.00;63287.88;4970172;28;20022;-72
2021/03/25 06:56:41;;;;;;;6.85;4.07;;;;;;;-140.79;100.00;63287.88;4976143;28;20035;-71
2021/03/25 06:59:09;;;;;;;5.97;3.80;;;;;;;-140.79;100.00;63287.88;4982374;28;20022;-71
2021/03/25 07:01:34;;;;;;;6.30;3.95;;;;;;;-140.79;100.00;63287.88;4951379;28;20026;-73
2021/03/25 07:04:04;;;;;;;6.40;3.92;;;;;;;-140.79;100.00;63287.88;4971693;28;20077;-73
2021/03/25 07:06:30;;;;;;;6.37;3.90;;;;;;;-140.79;100.00;63287.88;4963000;28;20126;-72
2021/03/25 07:08:55;;;;;;;5.80;3.90;;;;;;;-140.79;100.00;63287.88;4959925;28;20357;-74
2021/03/25 07:11:21;;;;;;;5.63;3.53;;;;;;;-140.79;100.00;63287.88;4934862;28;20035;-73
2021/03/25 07:14:08;;;;;;;7.22;3.88;;;;;;;-140.79;100.00;63287.88;4965479;28;20487;-76
2021/03/25 07:16:38;;;;;;;6.32;3.85;;;;;;;-140.79;100.00;63287.88;4943799;28;20468;-73
2021/03/25 07:19:07;;;;;;;5.70;3.42;;;;;;;-140.79;100.00;63287.88;4934607;28;20044;-75
2021/03/25 07:21:42;;;;;;;6.95;3.90;;;;;;;-140.79;100.00;63287.88;4946104;28;20135;-74
2021/03/25 07:24:12;;;;;;;5.70;3.42;;;;;;;-140.79;100.00;63287.88;4940419;28;20082;-73
2021/03/25 07:26:42;;;;;;;5.53;3.30;;;;;;;-140.79;100.00;63287.88;4948498;28;20050;-74
2021/03/25 07:29:11;;;;;;;5.32;3.55;;;;;;;-140.79;100.00;63287.88;4918272;29;20575;-77
2021/03/25 07:31:51;;;;;;;7.88;3.50;;;;;;;-140.79;100.00;63287.88;4948603;28;20093;-74
2021/03/25 07:34:32;;;;;;;6.45;3.60;;;;;;;-140.79;100.00;63287.88;4957727;28;20094;-74
2021/03/25 07:36:58;;;;;;;5.00;3.40;;;;;;;-140.79;100.00;63287.88;4948637;28;20881;-75
2021/03/25 07:39:29;;;;;;;4.72;2.90;;;;;;;-140.79;100.00;63287.88;4930174;29;20031;-75
2021/03/25 07:41:56;;;;;;;6.68;3.65;;;;;;;-140.79;100.00;63287.88;4946557;28;20031;-73
2021/03/25 07:44:24;;;;;;;5.45;3.38;;;;;;;-140.79;100.00;63287.88;4948907;28;20035;-73
2021/03/25 07:46:51;;;;;;;5.68;3.55;;;;;;;-140.79;100.00;63287.88;4948073;28;20063;-73
2021/03/25 07:49:20;;;;;;;5.60;3.28;;;;;;;-140.79;100.00;63287.88;4932607;28;20034;-73
2021/03/25 07:51:56;;;;;;;5.60;3.42;;;;;;;-140.79;100.00;63287.88;4935719;29;20039;-74
2021/03/25 07:54:25;;;;;;;5.70;3.55;;;;;;;-140.79;100.00;63287.88;4922305;28;20027;-73
2021/03/25 07:57:22;;;;;;;5.60;3.33;;;;;;;-140.79;100.00;63287.88;4945962;28;20086;-73
2021/03/25 07:59:52;;;;;;;4.70;3.00;;;;;;;-140.79;100.00;63287.88;4928999;29;20417;-73
2021/03/25 08:02:37;;;;;;;4.43;2.92;;;;;;;-140.79;100.00;63287.88;4929034;28;20501;-73
2021/03/25 08:05:21;;;;;;;5.43;3.10;;;;;;;-140.79;100.00;63287.88;4930062;29;20080;-73
2021/03/25 08:07:53;;;;;;;5.70;3.42;;;;;;;-140.79;100.00;63287.88;4950362;28;20081;-73
2021/03/25 08:10:36;;;;;;;5.35;3.00;;;;;;;-140.79;100.00;63287.88;4915009;29;20035;-73
2021/03/25 08:13:08;;;;;;;4.80;2.95;;;;;;;-140.79;100.00;63287.88;4947222;28;20042;-73
2021/03/25 08:15:42;;;;;;;5.13;3.08;;;;;;;-140.79;100.00;63287.88;4946821;28;20106;-73
2021/03/25 08:18:35;;;;;;;5.38;3.38;;;;;;;-140.79;100.00;63287.88;4934528;28;20053;-73
2021/03/25 08:21:00;;;;;;;5.43;3.13;;;;;;;-140.79;100.00;63287.88;4943977;28;20527;-73
2021/03/25 08:23:49;;;;;;;5.45;3.25;;;;;;;-140.79;100.00;63287.88;4949369;28;20118;-73
2021/03/25 08:26:21;;;;;;;4.90;3.20;;;;;;;-140.79;100.00;63287.88;4934156;28;20049;-73
2021/03/25 08:28:57;;;;;;;5.80;3.00;;;;;;;-140.79;100.00;63287.88;4932870;29;20034;-73
2021/03/25 08:31:51;;;;;;;4.50;3.00;;;;;;;-140.79;100.00;63287.88;4930415;28;20059;-73
2021/03/25 08:34:40;;;;;;;5.03;3.30;;;;;;;-140.79;100.00;63287.88;4966093;28;20030;-72
2021/03/25 08:37:17;;;;;;;5.43;3.28;;;;;;;-140.79;100.00;63287.88;4962723;28;20448;-73
2021/03/25 08:40:01;;;;;;;5.93;3.47;;;;;;;-140.79;100.00;63287.88;4958924;28;20035;-73
2021/03/25 08:42:34;;;;;;;5.80;3.25;;;;;;;-140.79;100.00;63287.88;4942131;28;20031;-72
2021/03/25 08:45:18;;;;;;;4.82;2.97;;;;;;;-140.79;100.00;63287.88;4948794;28;20039;-72
2021/03/25 08:48:03;;;;;;;4.05;2.78;;;;;;;-140.79;100.00;63287.88;4949161;28;20023;-74
2021/03/25 08:50:31;;;;;;;4.95;2.90;;;;;;;-140.79;100.00;63287.88;4951298;28;20032;-73
2021/03/25 08:52:57;;;;;;;4.75;2.90;;;;;;;-140.79;100.00;63287.88;4936385;29;20051;-72
2021/03/25 08:55:25;;;;;;;5.03;2.72;;;;;;;-140.79;100.00;63287.88;4941982;28;20516;-76
2021/03/25 08:57:52;;;;;;;4.25;2.70;;;;;;;-140.79;100.00;63287.88;4944923;28;20623;-72
2021/03/25 09:00:25;;;;;;;4.10;2.60;;;;;;;-140.79;100.00;63287.88;4972944;28;20057;-73
2021/03/25 09:02:53;;;;;;;6.05;3.10;;;;;;;-140.79;100.00;63287.88;4961813;28;20147;-73
2021/03/25 09:05:36;;;;;;;4.68;2.58;;;;;;;-140.79;100.00;63287.88;4962550;28;20043;-73
2021/03/25 09:08:05;;;;;;;5.88;3.42;;;;;;;-140.79;100.00;63287.88;4963167;28;20035;-73
2021/03/25 09:10:50;;;;;;;5.72;2.88;;;;;;;-140.79;100.00;63287.88;4964713;28;20389;-73
2021/03/25 09:13:24;;;;;;;4.22;2.83;;;;;;;-140.79;100.00;63287.88;4938546;29;20031;-73
2021/03/25 09:15:50;;;;;;;6.65;2.90;;;;;;;-140.79;100.00;63287.88;4937589;29;20094;-73
2021/03/25 09:18:22;;;;;;;5.82;2.60;;;;;;;-140.79;100.00;63287.88;4938188;29;20035;-73
2021/03/25 09:20:50;;;;;;;4.78;2.80;;;;;;;-140.79;100.00;63287.88;4938436;29;20105;-72
2021/03/25 09:23:31;;;;;;;4.25;2.70;;;;;;;-140.79;100.00;63287.88;4935369;29;20034;-72
2021/03/25 09:25:57;;;;;;;5.55;2.75;;;;;;;-140.79;100.00;63287.88;4953684;28;20038;-73
2021/03/25 09:28:23;;;;;;;4.80;2.83;;;;;;;-140.79;100.00;63287.88;4951429;29;20039;-72
2021/03/25 09:31:07;;;;;;;4.60;2.88;;;;;;;-140.79;100.00;63287.88;4952970;28;20488;-73
2021/03/25 09:33:48;;;;;;;4.72;2.70;;;;;;;-140.79;100.00;63287.88;4963913;28;20035;-73
2021/03/25 09:36:17;;;;;;;4.13;2.47;;;;;;;-140.79;100.00;63287.88;4950186;28;20073;-73
2021/03/25 09:38:58;;;;;;;4.85;2.75;;;;;;;-140.79;100.00;63287.88;4963920;28;20121;-73
2021/03/25 09:41:29;;;;;;;5.53;2.90;;;;;;;-140.79;100.00;63287.88;4961785;28;20031;-73
2021/03/25 09:44:10;;;;;;;4.40;2.67;;;;;;;-140.79;100.00;63287.88;4962744;28;20153;-73
2021/03/25 09:47:11;;;;;;;3.70;2.60;;;;;;;-140.79;100.00;63287.88;4964365;28;20027;-73
2021/03/25 09:49:41;;;;;;;4.68;2.75;;;;;;;-140.79;100.00;63287.88;4963765;28;20113;-73
2021/03/25 09:52:13;;;;;;;4.55;2.53;;;;;;;-140.79;100.00;63287.88;4968126;28;20018;-73
2021/03/25 09:54:46;;;;;;;4.75;2.78;;;;;;;-140.79;100.00;63287.88;4964746;28;20046;-72
2021/03/25 09:57:18;;;;;;;4.43;3.15;;;;;;;-140.79;100.00;63287.88;4968384;28;20026;-73
2021/03/25 09:59:52;;;;;;;4.07;2.58;;;;;;;-140.79;100.00;63287.88;4964479;28;20104;-73
2021/03/25 10:02:48;;;;;;;4.13;2.38;;;;;;;-140.79;100.00;63287.88;4963829;28;20049;-73
2021/03/25 10:05:19;;;;;;;5.72;2.47;;;;;;;-140.79;100.00;63287.88;4963969;28;20590;-73
2021/03/25 10:07:48;;;;;;;4.40;2.50;;;;;;;-140.79;100.00;63287.88;4964481;28;20086;-74
2021/03/25 10:10:39;;;;;;;4.68;2.40;;;;;;;-140.79;100.00;63287.88;4938693;29;20035;-81
2021/03/25 10:13:05;;;;;;;3.38;2.20;;;;;;;-140.79;100.00;63287.88;4961349;28;20090;-74
2021/03/25 10:15:31;;;;;;;3.55;2.63;;;;;;;-140.79;100.00;63287.88;4949717;28;20122;-74
2021/03/25 10:17:58;;;;;;;5.20;2.40;;;;;;;-140.79;100.00;63287.88;4951721;28;20118;-75
2021/03/25 10:20:52;;;;;;;4.88;2.50;;;;;;;-140.79;100.00;63287.88;4931285;29;20078;-73
2021/03/25 10:23:22;;;;;;;4.53;2.25;;;;;;;-140.79;100.00;63287.88;4947565;28;20552;-74
2021/03/25 10:25:50;;;;;;;;;;;;;;;-140.79;100.00;63287.88;4952349;28;20114;-74
2021/03/25 10:28:16;;;;;;;4.70;2.10;;;;;;;-140.79;100.00;63287.88;4950059;28;20020;-76
2021/03/25 10:30:41;;;;;;;4.03;2.17;;;;;;;-140.79;100.00;63287.88;4934295;29;20034;-76
2021/03/25 10:33:07;;;;;;;4.20;2.20;;;;;;;-140.79;100.00;63287.88;4933631;28;20031;-75
2021/03/25 10:35:50;;;;;;;3.78;2.20;;;;;;;-140.79;100.00;63287.88;4931600;29;20034;-76
2021/03/25 10:38:15;;;;;;;3.45;1.85;;;;;;;-140.79;100.00;63287.88;4932576;28;20042;-74
2021/03/25 10:40:42;;;;;;;3.95;2.03;;;;;;;-140.79;100.00;63287.88;4939550;28;20027;-74
2021/03/25 10:43:25;;;;;;;4.88;2.35;;;;;;;-140.79;100.00;63287.88;4966298;28;20087;-72
2021/03/25 10:45:52;;;;;;;4.07;2.03;;;;;;;-140.79;100.00;63287.88;4946784;28;20086;-72
2021/03/25 10:48:33;;;;;;;2.72;1.60;;;;;;;-140.79;100.00;63287.88;4937803;28;20051;-74
2021/03/25 10:51:05;;;;;;;3.22;2.03;;;;;;;-140.79;100.00;63287.88;4922612;29;20044;-73
2021/03/25 10:53:36;;;;;;;4.22;2.00;;;;;;;-140.79;100.00;63287.88;4944210;28;20026;-72
2021/03/25 10:56:21;;;;;;;3.85;2.42;;;;;;;-140.79;100.00;63287.88;4948901;28;20090;-75
2021/03/25 10:58:58;;;;;;;3.97;2.55;;;;;;;-140.79;100.00;63287.88;4966017;28;20137;-74
2021/03/25 11:01:26;;;;;;;3.78;2.10;;;;;;;-140.79;100.00;63287.88;4964895;28;20555;-74
2021/03/25 11:03:51;;;;;;;4.32;2.35;;;;;;;-140.79;100.00;63287.88;4963130;28;20578;-74
2021/03/25 11:06:31;;;;;;;3.80;2.10;;;;;;;-140.79;100.00;63287.88;4945581;28;20039;-74
2021/03/25 11:09:04;;;;;;;4.47;2.00;;;;;;;-140.79;100.00;63287.88;4962367;28;20335;-75
2021/03/25 11:11:29;;;;;;;5.38;1.90;;;;;;;-140.79;100.00;63287.88;4964527;28;20141;-76
2021/03/25 11:14:24;;;;;;;3.75;2.65;;;;;;;-140.79;100.00;63287.88;4960908;28;20504;-75
2021/03/25 11:17:08;;;;;;;4.53;2.17;;;;;;;-140.79;100.00;63287.88;4965149;28;20062;-75
2021/03/25 11:19:34;;;;;;;4.15;2.00;;;;;;;-140.79;100.00;63287.88;4962711;28;20503;-74
2021/03/25 11:21:59;;;;;;;4.53;2.10;;;;;;;-140.79;100.00;63287.88;4950263;28;20030;-75
2021/03/25 11:24:29;;;;;;;3.47;2.17;;;;;;;-140.79;100.00;63287.88;4958670;28;20038;-75
2021/03/25 11:26:59;;;;;;;3.30;1.88;;;;;;;-140.79;100.00;63287.88;4926667;28;20019;-76
2021/03/25 11:29:29;;;;;;;3.58;2.10;;;;;;;-140.79;100.00;63287.88;4957961;28;20512;-77
2021/03/25 11:32:11;;;;;;;3.70;1.80;;;;;;;-140.79;100.00;63287.88;4964646;28;20023;-75
2021/03/25 11:34:39;;;;;;;3.55;2.03;;;;;;;-140.79;100.00;63287.88;4959786;28;20077;-75
2021/03/25 11:37:31;;;;;;;3.88;2.05;;;;;;;-140.79;100.00;63287.88;4923731;28;20027;-73
2021/03/25 11:40:10;;;;;;;2.72;1.98;;;;;;;-140.79;100.00;63287.88;4957236;28;20023;-76